Pagrindinis puslapis
METAR-TAF:

METAR-TAF

Oro uostai :

Rio Brankas, Akrė, Brazilija

platuma: 10-00S, ilguma: 067-48W, Aukštis: 142 m

Dabartinis oras

Ataskaita buvo paskelbta 49 minutes, ne 13:00 UTC
Vėjas 8 kt iš Šiaurės
Temperatūra 31°C
Drėgmė 63%
Slėgis 1012 hPa
Matomumas 10 km arba daugiau
nėra debesų žemiau 1500 m ir nėra kamuolinių lietaus debesų

METAR: SBRB 201300Z 01008KT CAVOK 31/23 Q1012

Laikas: 08:49 (13:49 UTC)

Prognozė

Ataskaita buvo paskelbta 5 valandos ir 19 minutes, ne 08:30 UTC
Prognozė galioja nuo 20 metu 12 UTC su 20 metu 24 UTC
Vėjas 10 kt iš Šiaurės Vakarų
Matomumas 10 km arba daugiau
nėra debesų žemiau 1500 m ir nėra kamuolinių lietaus debesų
Tapsmas
nuo 20 metu 19 UTC su 20 metu 21 UTC
Vėjas 5 kt iš Šiaurės

TAF: SBRB 200830Z 2012/2024 32010KT CAVOK TN26/2012Z TX35/2018Z BECMG 2019/2021 01005KT RMK PGY

Orai ataskaitas ir orų prognozės (METAR, TAF).

turimą stotys yra geltonos ir raudonos taškus žemėlapyje.

Perkelti pele per norėdami pamatyti stoties vardą.

Tada spustelėkite, norėdami matyti oro stebėjimo ir prognozės.

Norėdami pakeisti žemėlapį: spustelėkite ant žalios mygtukų su juodo kryžiaus žemyn,; žalią mygtuką su brūkšneliu, jei norite nutolinti; arba žalių rodyklių gretimoms žemėlapius.


METAR-TAF: